sensor_id;sensor_type;location;lat;lon;timestamp;temperature;humidity
59975;DHT22;62136;-35.664;-63.766;2023-04-03T00:00:55;24.90;46.40
59975;DHT22;62136;-35.664;-63.766;2023-04-03T00:03:22;24.90;46.30
59975;DHT22;62136;-35.664;-63.766;2023-04-03T00:05:49;24.90;46.40
59975;DHT22;62136;-35.664;-63.766;2023-04-03T00:08:17;24.90;46.40
59975;DHT22;62136;-35.664;-63.766;2023-04-03T00:10:44;24.80;46.30
59975;DHT22;62136;-35.664;-63.766;2023-04-03T00:13:11;24.90;46.40
59975;DHT22;62136;-35.664;-63.766;2023-04-03T00:15:39;24.80;46.30
59975;DHT22;62136;-35.664;-63.766;2023-04-03T00:18:07;24.80;46.30
59975;DHT22;62136;-35.664;-63.766;2023-04-03T00:20:34;24.80;46.40
59975;DHT22;62136;-35.664;-63.766;2023-04-03T00:23:02;24.80;46.40
59975;DHT22;62136;-35.664;-63.766;2023-04-03T00:25:29;24.80;46.50
59975;DHT22;62136;-35.664;-63.766;2023-04-03T00:27:56;24.80;46.50
59975;DHT22;62136;-35.664;-63.766;2023-04-03T00:30:23;24.80;46.40
59975;DHT22;62136;-35.664;-63.766;2023-04-03T00:32:51;24.80;46.50
59975;DHT22;62136;-35.664;-63.766;2023-04-03T00:35:20;24.80;46.50
59975;DHT22;62136;-35.664;-63.766;2023-04-03T00:37:47;24.80;46.50
59975;DHT22;62136;-35.664;-63.766;2023-04-03T00:40:15;24.70;46.40
59975;DHT22;62136;-35.664;-63.766;2023-04-03T00:42:44;24.70;46.50
59975;DHT22;62136;-35.664;-63.766;2023-04-03T00:47:45;24.70;46.50
59975;DHT22;62136;-35.664;-63.766;2023-04-03T00:50:12;24.70;46.60
59975;DHT22;62136;-35.664;-63.766;2023-04-03T00:52:40;24.70;46.50
59975;DHT22;62136;-35.664;-63.766;2023-04-03T00:55:09;24.70;46.50
59975;DHT22;62136;-35.664;-63.766;2023-04-03T00:57:38;24.70;46.60
59975;DHT22;62136;-35.664;-63.766;2023-04-03T01:00:08;24.70;46.60
59975;DHT22;62136;-35.664;-63.766;2023-04-03T01:02:36;24.70;46.60
59975;DHT22;62136;-35.664;-63.766;2023-04-03T01:05:04;24.60;46.60
59975;DHT22;62136;-35.664;-63.766;2023-04-03T01:07:32;24.60;46.60
59975;DHT22;62136;-35.664;-63.766;2023-04-03T01:10:09;24.60;46.70
59975;DHT22;62136;-35.664;-63.766;2023-04-03T01:12:42;24.60;46.70
59975;DHT22;62136;-35.664;-63.766;2023-04-03T01:15:12;24.60;46.70
59975;DHT22;62136;-35.664;-63.766;2023-04-03T01:17:44;24.60;46.70
59975;DHT22;62136;-35.664;-63.766;2023-04-03T01:25:24;24.60;46.70
59975;DHT22;62136;-35.664;-63.766;2023-04-03T01:27:51;24.60;46.70
59975;DHT22;62136;-35.664;-63.766;2023-04-03T01:30:20;24.60;46.70
59975;DHT22;62136;-35.664;-63.766;2023-04-03T01:32:47;24.50;46.70
59975;DHT22;62136;-35.664;-63.766;2023-04-03T01:35:14;24.50;46.70
59975;DHT22;62136;-35.664;-63.766;2023-04-03T01:37:41;24.50;46.70
59975;DHT22;62136;-35.664;-63.766;2023-04-03T01:40:09;24.50;46.70
59975;DHT22;62136;-35.664;-63.766;2023-04-03T01:42:36;24.50;47.20
59975;DHT22;62136;-35.664;-63.766;2023-04-03T01:45:03;24.50;46.70
59975;DHT22;62136;-35.664;-63.766;2023-04-03T01:47:30;24.50;46.70
59975;DHT22;62136;-35.664;-63.766;2023-04-03T01:49:57;24.50;46.70
59975;DHT22;62136;-35.664;-63.766;2023-04-03T01:52:24;24.50;46.70
59975;DHT22;62136;-35.664;-63.766;2023-04-03T01:54:52;24.50;46.70
59975;DHT22;62136;-35.664;-63.766;2023-04-03T01:57:19;24.50;46.80
59975;DHT22;62136;-35.664;-63.766;2023-04-03T01:59:46;24.50;46.80
59975;DHT22;62136;-35.664;-63.766;2023-04-03T02:02:13;24.50;46.80
59975;DHT22;62136;-35.664;-63.766;2023-04-03T02:04:43;24.50;46.90
59975;DHT22;62136;-35.664;-63.766;2023-04-03T02:07:11;24.50;46.90
59975;DHT22;62136;-35.664;-63.766;2023-04-03T02:09:41;24.50;46.80
59975;DHT22;62136;-35.664;-63.766;2023-04-03T02:12:08;24.50;46.80
59975;DHT22;62136;-35.664;-63.766;2023-04-03T02:14:35;24.40;46.90
59975;DHT22;62136;-35.664;-63.766;2023-04-03T02:17:05;24.40;46.80
59975;DHT22;62136;-35.664;-63.766;2023-04-03T02:19:35;24.50;46.90
59975;DHT22;62136;-35.664;-63.766;2023-04-03T02:22:03;24.40;46.90
59975;DHT22;62136;-35.664;-63.766;2023-04-03T02:24:30;24.40;47.00
59975;DHT22;62136;-35.664;-63.766;2023-04-03T02:26:58;24.40;46.90
59975;DHT22;62136;-35.664;-63.766;2023-04-03T02:29:25;24.40;47.00
59975;DHT22;62136;-35.664;-63.766;2023-04-03T02:31:52;24.40;47.00
59975;DHT22;62136;-35.664;-63.766;2023-04-03T02:34:19;24.40;47.00
59975;DHT22;62136;-35.664;-63.766;2023-04-03T02:36:46;24.30;47.00
59975;DHT22;62136;-35.664;-63.766;2023-04-03T02:39:13;24.30;47.00
59975;DHT22;62136;-35.664;-63.766;2023-04-03T02:41:40;24.30;47.10
59975;DHT22;62136;-35.664;-63.766;2023-04-03T02:44:09;24.30;47.00
59975;DHT22;62136;-35.664;-63.766;2023-04-03T02:46:37;24.30;47.10
59975;DHT22;62136;-35.664;-63.766;2023-04-03T02:49:07;24.30;47.10
59975;DHT22;62136;-35.664;-63.766;2023-04-03T02:51:34;24.30;47.10
59975;DHT22;62136;-35.664;-63.766;2023-04-03T02:54:01;24.30;47.20
59975;DHT22;62136;-35.664;-63.766;2023-04-03T02:56:28;24.30;47.30
59975;DHT22;62136;-35.664;-63.766;2023-04-03T02:59:01;24.30;47.30
59975;DHT22;62136;-35.664;-63.766;2023-04-03T03:01:28;24.30;47.30
59975;DHT22;62136;-35.664;-63.766;2023-04-03T03:03:58;24.30;47.40
59975;DHT22;62136;-35.664;-63.766;2023-04-03T03:06:25;24.30;47.40
59975;DHT22;62136;-35.664;-63.766;2023-04-03T03:08:52;24.20;47.30
59975;DHT22;62136;-35.664;-63.766;2023-04-03T03:11:19;24.30;47.40
59975;DHT22;62136;-35.664;-63.766;2023-04-03T03:13:47;24.20;47.40
59975;DHT22;62136;-35.664;-63.766;2023-04-03T03:16:14;24.20;47.40
59975;DHT22;62136;-35.664;-63.766;2023-04-03T03:18:41;24.20;47.50
59975;DHT22;62136;-35.664;-63.766;2023-04-03T03:21:10;24.20;47.60
59975;DHT22;62136;-35.664;-63.766;2023-04-03T03:23:37;24.20;47.60
59975;DHT22;62136;-35.664;-63.766;2023-04-03T03:26:09;24.20;47.60
59975;DHT22;62136;-35.664;-63.766;2023-04-03T03:28:38;24.20;47.60
59975;DHT22;62136;-35.664;-63.766;2023-04-03T03:31:06;24.10;47.50
59975;DHT22;62136;-35.664;-63.766;2023-04-03T03:33:33;24.10;47.60
59975;DHT22;62136;-35.664;-63.766;2023-04-03T03:36:00;24.10;47.60
59975;DHT22;62136;-35.664;-63.766;2023-04-03T03:38:28;24.10;48.00
59975;DHT22;62136;-35.664;-63.766;2023-04-03T03:40:55;24.10;47.70
59975;DHT22;62136;-35.664;-63.766;2023-04-03T03:43:22;24.10;47.70
59975;DHT22;62136;-35.664;-63.766;2023-04-03T03:45:55;24.10;47.70
59975;DHT22;62136;-35.664;-63.766;2023-04-03T03:48:22;24.10;47.80
59975;DHT22;62136;-35.664;-63.766;2023-04-03T03:50:50;24.10;47.80
59975;DHT22;62136;-35.664;-63.766;2023-04-03T03:53:17;24.10;47.80
59975;DHT22;62136;-35.664;-63.766;2023-04-03T03:55:45;24.10;47.80
59975;DHT22;62136;-35.664;-63.766;2023-04-03T03:58:12;24.10;47.90
59975;DHT22;62136;-35.664;-63.766;2023-04-03T04:00:39;24.10;47.80
59975;DHT22;62136;-35.664;-63.766;2023-04-03T04:03:06;24.10;47.90
59975;DHT22;62136;-35.664;-63.766;2023-04-03T04:05:33;24.10;47.90
59975;DHT22;62136;-35.664;-63.766;2023-04-03T04:08:00;24.00;48.00
59975;DHT22;62136;-35.664;-63.766;2023-04-03T04:10:27;24.00;47.70
59975;DHT22;62136;-35.664;-63.766;2023-04-03T04:12:54;24.00;48.00
59975;DHT22;62136;-35.664;-63.766;2023-04-03T04:15:21;24.00;48.00
59975;DHT22;62136;-35.664;-63.766;2023-04-03T04:17:49;24.00;48.00
59975;DHT22;62136;-35.664;-63.766;2023-04-03T04:20:16;24.00;48.10
59975;DHT22;62136;-35.664;-63.766;2023-04-03T04:22:43;23.90;48.00
59975;DHT22;62136;-35.664;-63.766;2023-04-03T04:25:10;24.00;48.10
59975;DHT22;62136;-35.664;-63.766;2023-04-03T04:27:38;24.00;48.20
59975;DHT22;62136;-35.664;-63.766;2023-04-03T04:30:05;24.00;48.30
59975;DHT22;62136;-35.664;-63.766;2023-04-03T04:32:33;23.90;48.20
59975;DHT22;62136;-35.664;-63.766;2023-04-03T04:35:00;23.90;48.20
59975;DHT22;62136;-35.664;-63.766;2023-04-03T04:37:27;23.90;48.20
59975;DHT22;62136;-35.664;-63.766;2023-04-03T04:39:54;23.90;48.20
59975;DHT22;62136;-35.664;-63.766;2023-04-03T04:42:21;23.90;48.40
59975;DHT22;62136;-35.664;-63.766;2023-04-03T04:44:48;23.90;48.40
59975;DHT22;62136;-35.664;-63.766;2023-04-03T04:47:15;23.90;48.40
59975;DHT22;62136;-35.664;-63.766;2023-04-03T04:49:42;23.90;48.10
59975;DHT22;62136;-35.664;-63.766;2023-04-03T04:52:10;23.90;48.30
59975;DHT22;62136;-35.664;-63.766;2023-04-03T04:54:37;23.90;48.40
59975;DHT22;62136;-35.664;-63.766;2023-04-03T04:57:04;23.90;48.50
59975;DHT22;62136;-35.664;-63.766;2023-04-03T04:59:31;23.90;48.50
59975;DHT22;62136;-35.664;-63.766;2023-04-03T05:01:58;23.90;48.30
59975;DHT22;62136;-35.664;-63.766;2023-04-03T05:04:25;23.80;48.50
59975;DHT22;62136;-35.664;-63.766;2023-04-03T05:06:52;23.90;48.60
59975;DHT22;62136;-35.664;-63.766;2023-04-03T05:09:19;23.80;48.60
59975;DHT22;62136;-35.664;-63.766;2023-04-03T05:11:46;23.80;48.60
59975;DHT22;62136;-35.664;-63.766;2023-04-03T05:14:13;23.80;48.70
59975;DHT22;62136;-35.664;-63.766;2023-04-03T05:16:40;23.80;48.70
59975;DHT22;62136;-35.664;-63.766;2023-04-03T05:19:07;23.80;48.60
59975;DHT22;62136;-35.664;-63.766;2023-04-03T05:21:34;23.80;48.80
59975;DHT22;62136;-35.664;-63.766;2023-04-03T05:24:02;23.80;48.80
59975;DHT22;62136;-35.664;-63.766;2023-04-03T05:26:30;23.80;48.80
59975;DHT22;62136;-35.664;-63.766;2023-04-03T05:28:57;23.80;48.80
59975;DHT22;62136;-35.664;-63.766;2023-04-03T05:31:24;23.80;49.00
59975;DHT22;62136;-35.664;-63.766;2023-04-03T05:33:52;23.80;49.00
59975;DHT22;62136;-35.664;-63.766;2023-04-03T05:36:22;23.80;48.70
59975;DHT22;62136;-35.664;-63.766;2023-04-03T05:38:49;23.70;49.00
59975;DHT22;62136;-35.664;-63.766;2023-04-03T05:41:17;23.70;48.90
59975;DHT22;62136;-35.664;-63.766;2023-04-03T05:43:44;23.80;49.10
59975;DHT22;62136;-35.664;-63.766;2023-04-03T05:46:13;23.70;49.00
59975;DHT22;62136;-35.664;-63.766;2023-04-03T05:48:41;23.80;49.20
59975;DHT22;62136;-35.664;-63.766;2023-04-03T05:51:14;23.70;49.20
59975;DHT22;62136;-35.664;-63.766;2023-04-03T05:53:43;23.70;49.20
59975;DHT22;62136;-35.664;-63.766;2023-04-03T05:56:11;23.70;49.30
59975;DHT22;62136;-35.664;-63.766;2023-04-03T05:58:38;23.70;49.40
59975;DHT22;62136;-35.664;-63.766;2023-04-03T06:01:06;23.70;49.40
59975;DHT22;62136;-35.664;-63.766;2023-04-03T06:03:33;23.70;49.30
59975;DHT22;62136;-35.664;-63.766;2023-04-03T06:06:02;23.60;49.30
59975;DHT22;62136;-35.664;-63.766;2023-04-03T06:08:29;23.60;49.30
59975;DHT22;62136;-35.664;-63.766;2023-04-03T06:10:57;23.60;49.40
59975;DHT22;62136;-35.664;-63.766;2023-04-03T06:13:24;23.60;49.50
59975;DHT22;62136;-35.664;-63.766;2023-04-03T06:15:51;23.60;49.50
59975;DHT22;62136;-35.664;-63.766;2023-04-03T06:18:18;23.60;49.50
59975;DHT22;62136;-35.664;-63.766;2023-04-03T06:20:45;23.60;49.60
59975;DHT22;62136;-35.664;-63.766;2023-04-03T06:23:12;23.60;49.50
59975;DHT22;62136;-35.664;-63.766;2023-04-03T06:25:39;23.60;49.70
59975;DHT22;62136;-35.664;-63.766;2023-04-03T06:28:08;23.60;49.70
59975;DHT22;62136;-35.664;-63.766;2023-04-03T06:30:36;23.60;49.60
59975;DHT22;62136;-35.664;-63.766;2023-04-03T06:33:04;23.60;49.70
59975;DHT22;62136;-35.664;-63.766;2023-04-03T06:35:31;23.60;49.80
59975;DHT22;62136;-35.664;-63.766;2023-04-03T06:37:58;23.60;49.90
59975;DHT22;62136;-35.664;-63.766;2023-04-03T06:40:25;23.50;49.80
59975;DHT22;62136;-35.664;-63.766;2023-04-03T06:42:52;23.50;49.70
59975;DHT22;62136;-35.664;-63.766;2023-04-03T06:45:19;23.60;50.00
59975;DHT22;62136;-35.664;-63.766;2023-04-03T06:47:47;23.60;50.00
59975;DHT22;62136;-35.664;-63.766;2023-04-03T06:50:15;23.50;50.00
59975;DHT22;62136;-35.664;-63.766;2023-04-03T06:52:42;23.50;50.00
59975;DHT22;62136;-35.664;-63.766;2023-04-03T06:55:09;23.50;50.10
59975;DHT22;62136;-35.664;-63.766;2023-04-03T06:57:37;23.50;50.10
59975;DHT22;62136;-35.664;-63.766;2023-04-03T07:00:05;23.50;50.20
59975;DHT22;62136;-35.664;-63.766;2023-04-03T07:02:33;23.50;50.20
59975;DHT22;62136;-35.664;-63.766;2023-04-03T07:05:01;23.50;50.20
59975;DHT22;62136;-35.664;-63.766;2023-04-03T07:07:28;23.50;50.20
59975;DHT22;62136;-35.664;-63.766;2023-04-03T07:09:55;23.50;50.20
59975;DHT22;62136;-35.664;-63.766;2023-04-03T07:12:22;23.40;50.30
59975;DHT22;62136;-35.664;-63.766;2023-04-03T07:14:49;23.40;50.30
59975;DHT22;62136;-35.664;-63.766;2023-04-03T07:17:16;23.40;50.30
59975;DHT22;62136;-35.664;-63.766;2023-04-03T07:19:43;23.40;50.40
59975;DHT22;62136;-35.664;-63.766;2023-04-03T07:22:10;23.40;50.40
59975;DHT22;62136;-35.664;-63.766;2023-04-03T07:24:38;23.40;50.50
59975;DHT22;62136;-35.664;-63.766;2023-04-03T07:27:05;23.40;50.40
59975;DHT22;62136;-35.664;-63.766;2023-04-03T07:29:35;23.40;50.60
59975;DHT22;62136;-35.664;-63.766;2023-04-03T07:32:02;23.40;50.60
59975;DHT22;62136;-35.664;-63.766;2023-04-03T07:34:29;23.40;50.50
59975;DHT22;62136;-35.664;-63.766;2023-04-03T07:36:57;23.30;50.60
59975;DHT22;62136;-35.664;-63.766;2023-04-03T07:39:24;23.30;50.60
59975;DHT22;62136;-35.664;-63.766;2023-04-03T07:41:51;23.30;50.70
59975;DHT22;62136;-35.664;-63.766;2023-04-03T07:44:18;23.30;50.70
59975;DHT22;62136;-35.664;-63.766;2023-04-03T07:46:45;23.30;50.60
59975;DHT22;62136;-35.664;-63.766;2023-04-03T07:49:13;23.30;50.70
59975;DHT22;62136;-35.664;-63.766;2023-04-03T07:51:40;23.30;50.80
59975;DHT22;62136;-35.664;-63.766;2023-04-03T07:54:07;23.30;50.80
59975;DHT22;62136;-35.664;-63.766;2023-04-03T07:56:35;23.30;50.90
59975;DHT22;62136;-35.664;-63.766;2023-04-03T07:59:02;23.30;50.80
59975;DHT22;62136;-35.664;-63.766;2023-04-03T08:01:29;23.30;50.90
59975;DHT22;62136;-35.664;-63.766;2023-04-03T08:03:58;23.30;50.90
59975;DHT22;62136;-35.664;-63.766;2023-04-03T08:06:26;23.20;50.90
59975;DHT22;62136;-35.664;-63.766;2023-04-03T08:08:53;23.20;51.00
59975;DHT22;62136;-35.664;-63.766;2023-04-03T08:11:20;23.20;51.00
59975;DHT22;62136;-35.664;-63.766;2023-04-03T08:13:47;23.20;51.00
59975;DHT22;62136;-35.664;-63.766;2023-04-03T08:16:20;23.20;51.10
59975;DHT22;62136;-35.664;-63.766;2023-04-03T08:18:47;23.20;51.10
59975;DHT22;62136;-35.664;-63.766;2023-04-03T08:21:14;23.20;51.10
59975;DHT22;62136;-35.664;-63.766;2023-04-03T08:23:42;23.20;51.20
59975;DHT22;62136;-35.664;-63.766;2023-04-03T08:26:14;23.20;51.30
59975;DHT22;62136;-35.664;-63.766;2023-04-03T08:28:42;23.20;51.30
59975;DHT22;62136;-35.664;-63.766;2023-04-03T08:31:12;23.20;51.20
59975;DHT22;62136;-35.664;-63.766;2023-04-03T08:33:40;23.20;51.10
59975;DHT22;62136;-35.664;-63.766;2023-04-03T08:36:22;23.20;51.30
59975;DHT22;62136;-35.664;-63.766;2023-04-03T08:38:50;23.20;51.30
59975;DHT22;62136;-35.664;-63.766;2023-04-03T08:41:37;23.20;51.40
59975;DHT22;62136;-35.664;-63.766;2023-04-03T08:50:02;23.10;51.40
59975;DHT22;62136;-35.664;-63.766;2023-04-03T08:52:59;23.10;51.60
59975;DHT22;62136;-35.664;-63.766;2023-04-03T08:55:34;23.10;51.60
59975;DHT22;62136;-35.664;-63.766;2023-04-03T08:58:06;23.10;51.60
59975;DHT22;62136;-35.664;-63.766;2023-04-03T09:01:18;23.10;51.70
59975;DHT22;62136;-35.664;-63.766;2023-04-03T09:03:47;23.10;51.70
59975;DHT22;62136;-35.664;-63.766;2023-04-03T09:06:18;23.10;51.70
59975;DHT22;62136;-35.664;-63.766;2023-04-03T09:09:23;23.10;51.70
59975;DHT22;62136;-35.664;-63.766;2023-04-03T09:14:33;23.00;51.80
59975;DHT22;62136;-35.664;-63.766;2023-04-03T09:22:41;23.00;51.90
59975;DHT22;62136;-35.664;-63.766;2023-04-03T09:25:18;23.00;51.90
59975;DHT22;62136;-35.664;-63.766;2023-04-03T09:27:47;23.00;51.90
59975;DHT22;62136;-35.664;-63.766;2023-04-03T09:30:22;23.00;52.00
59975;DHT22;62136;-35.664;-63.766;2023-04-03T09:32:52;23.00;51.90
59975;DHT22;62136;-35.664;-63.766;2023-04-03T09:35:21;23.00;52.00
59975;DHT22;62136;-35.664;-63.766;2023-04-03T09:37:55;22.90;52.10
59975;DHT22;62136;-35.664;-63.766;2023-04-03T09:42:57;23.00;52.20
59975;DHT22;62136;-35.664;-63.766;2023-04-03T09:45:32;22.90;52.10
59975;DHT22;62136;-35.664;-63.766;2023-04-03T09:48:07;22.90;52.20
59975;DHT22;62136;-35.664;-63.766;2023-04-03T09:50:36;22.90;52.20
59975;DHT22;62136;-35.664;-63.766;2023-04-03T09:53:11;22.90;52.30
59975;DHT22;62136;-35.664;-63.766;2023-04-03T09:55:52;22.90;52.30
59975;DHT22;62136;-35.664;-63.766;2023-04-03T09:58:33;22.90;52.30
59975;DHT22;62136;-35.664;-63.766;2023-04-03T10:01:04;22.90;52.30
59975;DHT22;62136;-35.664;-63.766;2023-04-03T10:03:34;22.90;52.40
59975;DHT22;62136;-35.664;-63.766;2023-04-03T10:06:09;22.90;52.20
59975;DHT22;62136;-35.664;-63.766;2023-04-03T10:09:00;22.80;52.40
59975;DHT22;62136;-35.664;-63.766;2023-04-03T10:11:27;22.80;53.20
59975;DHT22;62136;-35.664;-63.766;2023-04-03T10:14:02;22.80;53.50
59975;DHT22;62136;-35.664;-63.766;2023-04-03T10:22:01;22.70;54.20
59975;DHT22;62136;-35.664;-63.766;2023-04-03T10:36:09;22.50;58.20
59975;DHT22;62136;-35.664;-63.766;2023-04-03T10:41:48;22.40;58.00
59975;DHT22;62136;-35.664;-63.766;2023-04-03T10:47:24;22.50;58.50
59975;DHT22;62136;-35.664;-63.766;2023-04-03T10:58:50;22.50;59.00
59975;DHT22;62136;-35.664;-63.766;2023-04-03T11:01:31;22.40;59.40
59975;DHT22;62136;-35.664;-63.766;2023-04-03T11:04:02;22.40;59.00
59975;DHT22;62136;-35.664;-63.766;2023-04-03T11:06:47;22.30;59.20
59975;DHT22;62136;-35.664;-63.766;2023-04-03T11:09:37;22.40;59.20
59975;DHT22;62136;-35.664;-63.766;2023-04-03T11:12:42;22.40;59.20
59975;DHT22;62136;-35.664;-63.766;2023-04-03T11:15:18;22.40;59.70
59975;DHT22;62136;-35.664;-63.766;2023-04-03T11:17:55;22.40;59.50
59975;DHT22;62136;-35.664;-63.766;2023-04-03T11:20:31;22.40;59.50
59975;DHT22;62136;-35.664;-63.766;2023-04-03T11:23:26;22.40;59.60
59975;DHT22;62136;-35.664;-63.766;2023-04-03T11:26:10;22.40;59.80
59975;DHT22;62136;-35.664;-63.766;2023-04-03T11:28:38;22.40;59.70
59975;DHT22;62136;-35.664;-63.766;2023-04-03T11:34:26;22.40;59.70
59975;DHT22;62136;-35.664;-63.766;2023-04-03T11:37:00;22.40;59.60
59975;DHT22;62136;-35.664;-63.766;2023-04-03T11:39:35;22.40;59.60
59975;DHT22;62136;-35.664;-63.766;2023-04-03T11:44:42;22.40;60.00
59975;DHT22;62136;-35.664;-63.766;2023-04-03T11:47:10;22.30;59.50
59975;DHT22;62136;-35.664;-63.766;2023-04-03T11:50:03;22.30;59.40
59975;DHT22;62136;-35.664;-63.766;2023-04-03T11:58:04;22.40;59.60
59975;DHT22;62136;-35.664;-63.766;2023-04-03T12:05:53;22.40;59.40
59975;DHT22;62136;-35.664;-63.766;2023-04-03T12:16:27;22.50;59.30
59975;DHT22;62136;-35.664;-63.766;2023-04-03T12:18:58;22.50;59.60
59975;DHT22;62136;-35.664;-63.766;2023-04-03T12:43:50;22.60;59.10
59975;DHT22;62136;-35.664;-63.766;2023-04-03T12:46:28;22.60;59.60
59975;DHT22;62136;-35.664;-63.766;2023-04-03T12:49:01;22.60;59.50
59975;DHT22;62136;-35.664;-63.766;2023-04-03T12:51:38;22.70;60.50
59975;DHT22;62136;-35.664;-63.766;2023-04-03T12:54:36;22.70;59.90
59975;DHT22;62136;-35.664;-63.766;2023-04-03T12:59:45;22.70;58.70
59975;DHT22;62136;-35.664;-63.766;2023-04-03T13:02:32;22.80;60.40
59975;DHT22;62136;-35.664;-63.766;2023-04-03T13:05:17;22.80;60.30
59975;DHT22;62136;-35.664;-63.766;2023-04-03T13:07:50;22.80;60.90
59975;DHT22;62136;-35.664;-63.766;2023-04-03T13:10:20;22.90;60.60
59975;DHT22;62136;-35.664;-63.766;2023-04-03T13:13:13;22.90;60.40
59975;DHT22;62136;-35.664;-63.766;2023-04-03T13:15:48;22.90;60.00
59975;DHT22;62136;-35.664;-63.766;2023-04-03T13:21:01;23.00;59.40
59975;DHT22;62136;-35.664;-63.766;2023-04-03T13:23:38;23.00;60.50
59975;DHT22;62136;-35.664;-63.766;2023-04-03T13:26:07;23.20;61.40
59975;DHT22;62136;-35.664;-63.766;2023-04-03T13:28:35;23.20;60.20
59975;DHT22;62136;-35.664;-63.766;2023-04-03T13:33:37;23.30;59.80
59975;DHT22;62136;-35.664;-63.766;2023-04-03T13:36:54;23.30;61.70
59975;DHT22;62136;-35.664;-63.766;2023-04-03T13:39:37;23.30;62.00
59975;DHT22;62136;-35.664;-63.766;2023-04-03T13:42:29;23.40;61.80
59975;DHT22;62136;-35.664;-63.766;2023-04-03T13:47:44;23.60;61.20
59975;DHT22;62136;-35.664;-63.766;2023-04-03T13:53:11;23.60;63.20
59975;DHT22;62136;-35.664;-63.766;2023-04-03T13:55:51;23.60;62.70
59975;DHT22;62136;-35.664;-63.766;2023-04-03T13:58:33;23.70;64.10
59975;DHT22;62136;-35.664;-63.766;2023-04-03T14:01:25;23.80;62.00
59975;DHT22;62136;-35.664;-63.766;2023-04-03T14:03:59;23.80;64.30
59975;DHT22;62136;-35.664;-63.766;2023-04-03T14:06:28;23.90;63.10
59975;DHT22;62136;-35.664;-63.766;2023-04-03T14:08:55;23.90;65.40
59975;DHT22;62136;-35.664;-63.766;2023-04-03T14:11:26;24.00;65.80
59975;DHT22;62136;-35.664;-63.766;2023-04-03T14:14:00;24.10;65.70
59975;DHT22;62136;-35.664;-63.766;2023-04-03T14:16:32;24.10;61.00
59975;DHT22;62136;-35.664;-63.766;2023-04-03T14:19:03;24.10;61.10
59975;DHT22;62136;-35.664;-63.766;2023-04-03T14:21:30;24.00;62.10
59975;DHT22;62136;-35.664;-63.766;2023-04-03T14:23:58;24.00;63.80
59975;DHT22;62136;-35.664;-63.766;2023-04-03T14:26:25;23.90;64.30
59975;DHT22;62136;-35.664;-63.766;2023-04-03T14:28:56;23.90;64.40
59975;DHT22;62136;-35.664;-63.766;2023-04-03T14:31:45;23.90;62.50
59975;DHT22;62136;-35.664;-63.766;2023-04-03T14:34:13;23.90;59.70
59975;DHT22;62136;-35.664;-63.766;2023-04-03T14:36:42;23.90;61.90
59975;DHT22;62136;-35.664;-63.766;2023-04-03T14:39:16;24.00;63.60
59975;DHT22;62136;-35.664;-63.766;2023-04-03T14:41:45;24.10;65.10
59975;DHT22;62136;-35.664;-63.766;2023-04-03T14:44:12;24.20;64.60
59975;DHT22;62136;-35.664;-63.766;2023-04-03T14:46:42;24.30;64.70
59975;DHT22;62136;-35.664;-63.766;2023-04-03T14:49:19;24.30;65.70
59975;DHT22;62136;-35.664;-63.766;2023-04-03T14:51:47;24.40;66.60
59975;DHT22;62136;-35.664;-63.766;2023-04-03T14:54:17;24.50;67.50
59975;DHT22;62136;-35.664;-63.766;2023-04-03T14:56:45;24.50;67.10
59975;DHT22;62136;-35.664;-63.766;2023-04-03T14:59:12;24.60;66.20
59975;DHT22;62136;-35.664;-63.766;2023-04-03T15:01:41;24.70;66.60
59975;DHT22;62136;-35.664;-63.766;2023-04-03T15:04:15;24.70;65.00
59975;DHT22;62136;-35.664;-63.766;2023-04-03T15:06:43;24.80;65.90
59975;DHT22;62136;-35.664;-63.766;2023-04-03T15:11:38;24.70;66.50
59975;DHT22;62136;-35.664;-63.766;2023-04-03T15:14:07;24.80;67.60
59975;DHT22;62136;-35.664;-63.766;2023-04-03T15:16:35;24.70;65.10
59975;DHT22;62136;-35.664;-63.766;2023-04-03T15:19:03;24.70;64.30
59975;DHT22;62136;-35.664;-63.766;2023-04-03T15:21:30;24.70;63.90
59975;DHT22;62136;-35.664;-63.766;2023-04-03T15:23:59;24.70;63.60
59975;DHT22;62136;-35.664;-63.766;2023-04-03T15:26:28;24.80;62.90
59975;DHT22;62136;-35.664;-63.766;2023-04-03T15:28:58;24.70;62.70
59975;DHT22;62136;-35.664;-63.766;2023-04-03T15:31:25;24.70;61.40
59975;DHT22;62136;-35.664;-63.766;2023-04-03T15:33:52;24.70;62.70
59975;DHT22;62136;-35.664;-63.766;2023-04-03T15:36:20;24.70;63.60
59975;DHT22;62136;-35.664;-63.766;2023-04-03T15:38:47;24.70;63.40
59975;DHT22;62136;-35.664;-63.766;2023-04-03T15:41:14;24.70;61.50
59975;DHT22;62136;-35.664;-63.766;2023-04-03T15:43:41;24.70;60.10
59975;DHT22;62136;-35.664;-63.766;2023-04-03T15:46:08;24.60;59.00
59975;DHT22;62136;-35.664;-63.766;2023-04-03T15:48:36;24.60;59.40
59975;DHT22;62136;-35.664;-63.766;2023-04-03T15:51:04;24.60;57.40
59975;DHT22;62136;-35.664;-63.766;2023-04-03T15:53:31;24.60;58.00
59975;DHT22;62136;-35.664;-63.766;2023-04-03T15:55:58;24.70;59.00
59975;DHT22;62136;-35.664;-63.766;2023-04-03T15:58:26;24.70;58.80
59975;DHT22;62136;-35.664;-63.766;2023-04-03T16:00:53;24.80;58.20
59975;DHT22;62136;-35.664;-63.766;2023-04-03T16:03:21;24.70;58.20
59975;DHT22;62136;-35.664;-63.766;2023-04-03T16:05:50;24.80;56.60
59975;DHT22;62136;-35.664;-63.766;2023-04-03T16:08:18;24.90;56.60
59975;DHT22;62136;-35.664;-63.766;2023-04-03T16:10:46;24.90;56.90
59975;DHT22;62136;-35.664;-63.766;2023-04-03T16:13:14;24.90;57.90
59975;DHT22;62136;-35.664;-63.766;2023-04-03T16:15:42;24.90;56.40
59975;DHT22;62136;-35.664;-63.766;2023-04-03T16:18:09;25.00;56.20
59975;DHT22;62136;-35.664;-63.766;2023-04-03T16:20:37;25.00;55.60
59975;DHT22;62136;-35.664;-63.766;2023-04-03T16:23:04;24.90;55.30
59975;DHT22;62136;-35.664;-63.766;2023-04-03T16:25:31;24.80;55.70
59975;DHT22;62136;-35.664;-63.766;2023-04-03T16:27:59;24.70;54.50
59975;DHT22;62136;-35.664;-63.766;2023-04-03T16:30:26;24.70;54.00
59975;DHT22;62136;-35.664;-63.766;2023-04-03T16:32:53;24.70;53.90
59975;DHT22;62136;-35.664;-63.766;2023-04-03T16:35:22;24.60;52.70
59975;DHT22;62136;-35.664;-63.766;2023-04-03T16:37:49;24.70;53.90
59975;DHT22;62136;-35.664;-63.766;2023-04-03T16:40:17;24.70;53.80
59975;DHT22;62136;-35.664;-63.766;2023-04-03T16:42:44;24.70;55.00
59975;DHT22;62136;-35.664;-63.766;2023-04-03T16:45:12;24.80;55.80
59975;DHT22;62136;-35.664;-63.766;2023-04-03T16:47:39;24.80;55.10
59975;DHT22;62136;-35.664;-63.766;2023-04-03T16:50:06;24.90;56.00
59975;DHT22;62136;-35.664;-63.766;2023-04-03T16:52:33;24.90;58.10
59975;DHT22;62136;-35.664;-63.766;2023-04-03T16:55:02;24.90;57.00
59975;DHT22;62136;-35.664;-63.766;2023-04-03T16:57:29;25.10;55.90
59975;DHT22;62136;-35.664;-63.766;2023-04-03T16:59:56;25.10;56.60
59975;DHT22;62136;-35.664;-63.766;2023-04-03T17:02:23;25.10;55.90
59975;DHT22;62136;-35.664;-63.766;2023-04-03T17:04:55;25.20;56.90